Terminal Aerodrome Forecast
Issued by NWS

Home | Current Version | Previous Version | Text Only | Print | Product List | Glossary On
Versions: 1 2 3 4 5 6 7 8 9 10 11 12 13
000
FTUS46 KSTO 211100
TAFMHR
TAF
KMHR 211120Z 2112/2212 VRB05KT P6SM FEW250
     FM212100 20010KT P6SM SCT100 OVC200
     FM220800 16006KT P6SM SCT050 OVC100=

USA.gov is the U.S. government's official web portal to all federal, state and local government web resources and services.